TVF4208 LFPO-EGPH
Flight info
| Callsign | TVF4208 |
|---|---|
| Flight time | 1h 23m |
| Altitude | 36000 |
| Route | ATREX DCT VESAN DCT RATUK DCT SOVAT L613 LEHOC DCT INPIP |
| Aircraft | B738/M-SDE2E3FGHIRWXY/LB1 |
Departure
| Time | 2026-05-06 03:31 |
|---|---|
| Airport | Paris-Orly Airport (LFPO) |
Arrival
| Time | 2026-05-06 04:55 |
|---|---|
| Airport | Edinburgh Airport (EGPH) |
| Time | Latitude | Longitude | Altitude | Speed | Heading |
|---|---|---|---|---|---|
| 2026-05-06 03:08 | 48.72698 | 2.36662 | 287 ft | 0 kts | 22° |
| 2026-05-06 03:26 | 48.72677 | 2.36649 | 284 ft | 6 kts | 22° |
| 2026-05-06 03:27 | 48.72638 | 2.36630 | 285 ft | 6 kts | 347° |
| 2026-05-06 03:27 | 48.72600 | 2.36650 | 285 ft | 6 kts | 315° |
| 2026-05-06 03:27 | 48.72590 | 2.36691 | 284 ft | 0 kts | 251° |
| 2026-05-06 03:28 | 48.72572 | 2.36594 | 280 ft | 14 kts | 256° |
| 2026-05-06 03:28 | 48.72547 | 2.36456 | 282 ft | 13 kts | 254° |
| 2026-05-06 03:29 | 48.72523 | 2.36327 | 279 ft | 13 kts | 254° |
| 2026-05-06 03:29 | 48.72476 | 2.36229 | 279 ft | 12 kts | 183° |
| 2026-05-06 03:29 | 48.72393 | 2.36258 | 280 ft | 12 kts | 164° |
| 2026-05-06 03:29 | 48.72314 | 2.36294 | 278 ft | 12 kts | 161° |
| 2026-05-06 03:30 | 48.72251 | 2.36383 | 278 ft | 18 kts | 121° |
| 2026-05-06 03:30 | 48.72144 | 2.36548 | 280 ft | 19 kts | 161° |
| 2026-05-06 03:30 | 48.72088 | 2.36613 | 285 ft | 10 kts | 110° |
| 2026-05-06 03:30 | 48.72151 | 2.36994 | 282 ft | 73 kts | 74° |
| 2026-05-06 03:31 | 48.72278 | 2.37681 | 281 ft | 126 kts | 74° |
| 2026-05-06 03:31 | 48.72566 | 2.39250 | 530 ft | 174 kts | 73° |
| 2026-05-06 03:31 | 48.72866 | 2.41199 | 1205 ft | 203 kts | 72° |
| 2026-05-06 03:31 | 48.73277 | 2.43372 | 1846 ft | 221 kts | 69° |
| 2026-05-06 03:32 | 48.73707 | 2.45612 | 2739 ft | 224 kts | 71° |
| 2026-05-06 03:32 | 48.74105 | 2.47924 | 3295 ft | 232 kts | 78° |
| 2026-05-06 03:32 | 48.74229 | 2.50398 | 3901 ft | 239 kts | 84° |
| 2026-05-06 03:32 | 48.74284 | 2.52896 | 4532 ft | 242 kts | 85° |
| 2026-05-06 03:33 | 48.74312 | 2.55468 | 5145 ft | 248 kts | 92° |
| 2026-05-06 03:33 | 48.73728 | 2.57939 | 5775 ft | 256 kts | 122° |
| 2026-05-06 03:33 | 48.72391 | 2.59758 | 6334 ft | 269 kts | 150° |
| 2026-05-06 03:33 | 48.70537 | 2.60463 | 6760 ft | 283 kts | 181° |
| 2026-05-06 03:34 | 48.68623 | 2.59777 | 7558 ft | 284 kts | 210° |
| 2026-05-06 03:34 | 48.67181 | 2.57845 | 8569 ft | 277 kts | 240° |
| 2026-05-06 03:34 | 48.66628 | 2.55098 | 9469 ft | 276 kts | 267° |
| 2026-05-06 03:34 | 48.66609 | 2.52170 | 10221 ft | 283 kts | 270° |
| 2026-05-06 03:35 | 48.66617 | 2.49076 | 10493 ft | 307 kts | 270° |
| 2026-05-06 03:35 | 48.66598 | 2.45724 | 10696 ft | 331 kts | 269° |
| 2026-05-06 03:35 | 48.66554 | 2.42184 | 11270 ft | 340 kts | 268° |
| 2026-05-06 03:35 | 48.66162 | 2.38641 | 11949 ft | 346 kts | 251° |
| 2026-05-06 03:36 | 48.65253 | 2.35246 | 12670 ft | 351 kts | 249° |
| 2026-05-06 03:36 | 48.64765 | 2.31634 | 13435 ft | 353 kts | 270° |
| 2026-05-06 03:36 | 48.65150 | 2.27969 | 14211 ft | 358 kts | 289° |
| 2026-05-06 03:36 | 48.66242 | 2.24561 | 14873 ft | 363 kts | 297° |
| 2026-05-06 03:37 | 48.67486 | 2.21196 | 15523 ft | 369 kts | 298° |
| 2026-05-06 03:37 | 48.68763 | 2.17814 | 16242 ft | 373 kts | 298° |
| 2026-05-06 03:37 | 48.70056 | 2.14367 | 16837 ft | 380 kts | 298° |
| 2026-05-06 03:37 | 48.71357 | 2.10859 | 17482 ft | 385 kts | 298° |
| 2026-05-06 03:38 | 48.72666 | 2.07293 | 18087 ft | 390 kts | 298° |
| 2026-05-06 03:38 | 48.73985 | 2.03675 | 18607 ft | 395 kts | 298° |
| 2026-05-06 03:38 | 48.75294 | 2.00071 | 19194 ft | 397 kts | 299° |
| 2026-05-06 03:38 | 48.76627 | 1.96392 | 19774 ft | 399 kts | 299° |
| 2026-05-06 03:39 | 48.77967 | 1.92691 | 20325 ft | 403 kts | 299° |
| 2026-05-06 03:39 | 48.79320 | 1.88948 | 20849 ft | 406 kts | 300° |
| 2026-05-06 03:39 | 48.80899 | 1.85401 | 21347 ft | 408 kts | 315° |
| 2026-05-06 03:39 | 48.83157 | 1.82835 | 21891 ft | 407 kts | 335° |
| 2026-05-06 03:40 | 48.85836 | 1.81522 | 22416 ft | 407 kts | 353° |
| 2026-05-06 03:40 | 48.88664 | 1.81482 | 22907 ft | 409 kts | 9° |
| 2026-05-06 03:40 | 48.91392 | 1.82699 | 23416 ft | 410 kts | 21° |
| 2026-05-06 03:40 | 48.94046 | 1.84324 | 23851 ft | 413 kts | 23° |
| 2026-05-06 03:41 | 48.96699 | 1.86024 | 24253 ft | 416 kts | 23° |
| 2026-05-06 03:41 | 48.99373 | 1.87741 | 24651 ft | 418 kts | 23° |
| 2026-05-06 03:41 | 49.02065 | 1.89449 | 25040 ft | 420 kts | 23° |
| 2026-05-06 03:41 | 49.04775 | 1.91146 | 25428 ft | 423 kts | 23° |
| 2026-05-06 03:42 | 49.07507 | 1.92843 | 25799 ft | 425 kts | 23° |
| 2026-05-06 03:42 | 49.10259 | 1.94545 | 26179 ft | 428 kts | 23° |
| 2026-05-06 03:42 | 49.12767 | 1.96095 | 26502 ft | 430 kts | 23° |
| 2026-05-06 03:42 | 49.15552 | 1.97818 | 26854 ft | 433 kts | 23° |
| 2026-05-06 03:43 | 49.18349 | 1.99551 | 27228 ft | 436 kts | 23° |
| 2026-05-06 03:43 | 49.21167 | 2.01301 | 27613 ft | 439 kts | 23° |
| 2026-05-06 03:43 | 49.24007 | 2.03066 | 27975 ft | 442 kts | 24° |
| 2026-05-06 03:43 | 49.26863 | 2.04843 | 28370 ft | 444 kts | 24° |
| 2026-05-06 03:44 | 49.29731 | 2.06629 | 28795 ft | 447 kts | 24° |
| 2026-05-06 03:44 | 49.32618 | 2.08429 | 29107 ft | 449 kts | 24° |
| 2026-05-06 03:44 | 49.35522 | 2.10241 | 29409 ft | 451 kts | 24° |
| 2026-05-06 03:44 | 49.38435 | 2.12061 | 29733 ft | 453 kts | 24° |
| 2026-05-06 03:45 | 49.41352 | 2.13886 | 30117 ft | 452 kts | 24° |
| 2026-05-06 03:45 | 49.44224 | 2.15684 | 30473 ft | 451 kts | 24° |
| 2026-05-06 03:45 | 49.47171 | 2.17509 | 30788 ft | 452 kts | 23° |
| 2026-05-06 03:45 | 49.50055 | 2.19282 | 31107 ft | 453 kts | 23° |
| 2026-05-06 03:46 | 49.52986 | 2.21082 | 31422 ft | 454 kts | 23° |
| 2026-05-06 03:46 | 49.55916 | 2.22884 | 31750 ft | 453 kts | 23° |
| 2026-05-06 03:46 | 49.58844 | 2.24689 | 32057 ft | 453 kts | 23° |
| 2026-05-06 03:46 | 49.61775 | 2.26502 | 32319 ft | 454 kts | 23° |
| 2026-05-06 03:47 | 49.64712 | 2.28322 | 32578 ft | 455 kts | 23° |
| 2026-05-06 03:47 | 49.67652 | 2.30147 | 32858 ft | 456 kts | 23° |
| 2026-05-06 03:47 | 49.70595 | 2.31975 | 33141 ft | 456 kts | 23° |
| 2026-05-06 03:47 | 49.73541 | 2.33807 | 33427 ft | 457 kts | 23° |
| 2026-05-06 03:48 | 49.76539 | 2.35423 | 33653 ft | 459 kts | 12° |
| 2026-05-06 03:48 | 49.79729 | 2.35740 | 33901 ft | 461 kts | 355° |
| 2026-05-06 03:48 | 49.82858 | 2.34662 | 34128 ft | 462 kts | 341° |
| 2026-05-06 03:48 | 49.85873 | 2.32934 | 34374 ft | 462 kts | 339° |
| 2026-05-06 03:49 | 49.88872 | 2.31119 | 34593 ft | 462 kts | 339° |
| 2026-05-06 03:49 | 49.91865 | 2.29293 | 34808 ft | 463 kts | 339° |
| 2026-05-06 03:49 | 49.94867 | 2.27482 | 35043 ft | 463 kts | 339° |
| 2026-05-06 03:49 | 49.97872 | 2.25695 | 35303 ft | 462 kts | 339° |
| 2026-05-06 03:50 | 50.00871 | 2.23932 | 35578 ft | 461 kts | 339° |
| 2026-05-06 03:50 | 50.03871 | 2.22180 | 35810 ft | 460 kts | 339° |
| 2026-05-06 03:50 | 50.06867 | 2.20434 | 36034 ft | 460 kts | 339° |
| 2026-05-06 03:50 | 50.09867 | 2.18683 | 36276 ft | 459 kts | 339° |
| 2026-05-06 03:51 | 50.12859 | 2.16935 | 36484 ft | 460 kts | 339° |
| 2026-05-06 03:51 | 50.15854 | 2.15182 | 36690 ft | 460 kts | 339° |
| 2026-05-06 03:51 | 50.18847 | 2.13426 | 36879 ft | 460 kts | 339° |
| 2026-05-06 03:51 | 50.21847 | 2.11662 | 37023 ft | 462 kts | 338° |
| 2026-05-06 03:52 | 50.24857 | 2.09890 | 37189 ft | 462 kts | 338° |
| 2026-05-06 03:52 | 50.27862 | 2.08118 | 37424 ft | 461 kts | 338° |
| 2026-05-06 03:52 | 50.30862 | 2.06350 | 37631 ft | 461 kts | 338° |
| 2026-05-06 03:52 | 50.33858 | 2.04580 | 37834 ft | 460 kts | 338° |
| 2026-05-06 03:53 | 50.39442 | 1.99782 | 37897 ft | 459 kts | 319° |
| 2026-05-06 03:53 | 50.44260 | 1.93197 | 37903 ft | 459 kts | 317° |
| 2026-05-06 03:54 | 50.49024 | 1.86536 | 37916 ft | 458 kts | 317° |
| 2026-05-06 03:54 | 50.53816 | 1.79935 | 37909 ft | 458 kts | 317° |
| 2026-05-06 03:55 | 50.58575 | 1.73410 | 37914 ft | 456 kts | 317° |
| 2026-05-06 03:55 | 50.63352 | 1.66843 | 37909 ft | 455 kts | 317° |
| 2026-05-06 03:56 | 50.68104 | 1.60286 | 37914 ft | 454 kts | 317° |
| 2026-05-06 03:56 | 50.72844 | 1.53723 | 37912 ft | 452 kts | 317° |
| 2026-05-06 03:57 | 50.77568 | 1.47169 | 37919 ft | 451 kts | 317° |
| 2026-05-06 03:57 | 50.82278 | 1.40618 | 37927 ft | 451 kts | 317° |
| 2026-05-06 03:58 | 50.86985 | 1.34060 | 37935 ft | 451 kts | 317° |
| 2026-05-06 03:58 | 50.91693 | 1.27481 | 37940 ft | 451 kts | 317° |
| 2026-05-06 03:59 | 50.96401 | 1.20882 | 37940 ft | 452 kts | 317° |
| 2026-05-06 03:59 | 51.01112 | 1.14259 | 37945 ft | 453 kts | 317° |
| 2026-05-06 04:00 | 51.05836 | 1.07605 | 37940 ft | 454 kts | 317° |
| 2026-05-06 04:00 | 51.10894 | 1.01554 | 37951 ft | 456 kts | 323° |
| 2026-05-06 04:01 | 51.16150 | 0.95873 | 37945 ft | 457 kts | 324° |
| 2026-05-06 04:01 | 51.21405 | 0.90163 | 37949 ft | 457 kts | 324° |
| 2026-05-06 04:02 | 51.26630 | 0.84385 | 38001 ft | 457 kts | 323° |
| 2026-05-06 04:02 | 51.31845 | 0.78565 | 38007 ft | 456 kts | 323° |
| 2026-05-06 04:03 | 51.37037 | 0.72748 | 38000 ft | 455 kts | 323° |
| 2026-05-06 04:03 | 51.42210 | 0.66939 | 38004 ft | 453 kts | 323° |
| 2026-05-06 04:04 | 51.47362 | 0.61138 | 37985 ft | 452 kts | 323° |
| 2026-05-06 04:04 | 51.52493 | 0.55345 | 37974 ft | 450 kts | 323° |
| 2026-05-06 04:05 | 51.57598 | 0.49567 | 37964 ft | 449 kts | 323° |
| 2026-05-06 04:05 | 51.62317 | 0.44209 | 37972 ft | 447 kts | 323° |
| 2026-05-06 04:06 | 51.67397 | 0.38427 | 37968 ft | 447 kts | 323° |
| 2026-05-06 04:06 | 51.72439 | 0.32671 | 37971 ft | 447 kts | 323° |
| 2026-05-06 04:07 | 51.77512 | 0.26864 | 37964 ft | 448 kts | 323° |
| 2026-05-06 04:07 | 51.82596 | 0.21028 | 37969 ft | 449 kts | 323° |
| 2026-05-06 04:08 | 51.87691 | 0.15162 | 37968 ft | 450 kts | 323° |
| 2026-05-06 04:08 | 51.92798 | 0.09266 | 37974 ft | 452 kts | 323° |
| 2026-05-06 04:09 | 51.97921 | 0.03335 | 37974 ft | 453 kts | 323° |
| 2026-05-06 04:09 | 52.03070 | -0.02575 | 37978 ft | 454 kts | 326° |
| 2026-05-06 04:10 | 52.08604 | -0.07577 | 37983 ft | 456 kts | 331° |
| 2026-05-06 04:10 | 52.14227 | -0.12334 | 37988 ft | 456 kts | 331° |
| 2026-05-06 04:11 | 52.19821 | -0.17190 | 37995 ft | 455 kts | 330° |
| 2026-05-06 04:11 | 52.25382 | -0.22101 | 37994 ft | 454 kts | 330° |
| 2026-05-06 04:12 | 52.30931 | -0.27013 | 37998 ft | 453 kts | 330° |
| 2026-05-06 04:12 | 52.36467 | -0.31920 | 38000 ft | 452 kts | 330° |
| 2026-05-06 04:13 | 52.41993 | -0.36831 | 37993 ft | 451 kts | 330° |
| 2026-05-06 04:13 | 52.47494 | -0.41734 | 38000 ft | 450 kts | 330° |
| 2026-05-06 04:14 | 52.52987 | -0.46646 | 37988 ft | 449 kts | 330° |
| 2026-05-06 04:14 | 52.58469 | -0.51562 | 37994 ft | 449 kts | 330° |
| 2026-05-06 04:15 | 52.63944 | -0.56486 | 37992 ft | 448 kts | 330° |
| 2026-05-06 04:15 | 52.69413 | -0.61419 | 38000 ft | 448 kts | 330° |
| 2026-05-06 04:16 | 52.74881 | -0.66364 | 37997 ft | 448 kts | 330° |
| 2026-05-06 04:16 | 52.80344 | -0.71320 | 38026 ft | 448 kts | 330° |
| 2026-05-06 04:17 | 52.84887 | -0.75453 | 38020 ft | 448 kts | 329° |
| 2026-05-06 04:17 | 52.90353 | -0.80438 | 38025 ft | 449 kts | 329° |
| 2026-05-06 04:18 | 52.95818 | -0.85436 | 38022 ft | 449 kts | 329° |
| 2026-05-06 04:18 | 53.01285 | -0.90449 | 38024 ft | 449 kts | 329° |
| 2026-05-06 04:19 | 53.06746 | -0.95464 | 38030 ft | 449 kts | 329° |
| 2026-05-06 04:19 | 53.12207 | -1.00490 | 38031 ft | 449 kts | 329° |
| 2026-05-06 04:20 | 53.17666 | -1.05530 | 38032 ft | 448 kts | 329° |
| 2026-05-06 04:20 | 53.23120 | -1.10581 | 38041 ft | 448 kts | 329° |
| 2026-05-06 04:21 | 53.28562 | -1.15637 | 38038 ft | 448 kts | 329° |
| 2026-05-06 04:21 | 53.34004 | -1.20708 | 38047 ft | 447 kts | 329° |
| 2026-05-06 04:22 | 53.39438 | -1.25785 | 38041 ft | 447 kts | 329° |
| 2026-05-06 04:23 | 53.47566 | -1.33426 | 38055 ft | 446 kts | 329° |
| 2026-05-06 04:23 | 53.52970 | -1.38541 | 38054 ft | 446 kts | 328° |
| 2026-05-06 04:24 | 53.58373 | -1.43668 | 38049 ft | 446 kts | 328° |
| 2026-05-06 04:24 | 53.63769 | -1.48801 | 38064 ft | 445 kts | 328° |
| 2026-05-06 04:25 | 53.69161 | -1.53945 | 38053 ft | 445 kts | 328° |
| 2026-05-06 04:25 | 53.74433 | -1.59377 | 38150 ft | 443 kts | 319° |
| 2026-05-06 04:26 | 53.79020 | -1.66307 | 38062 ft | 442 kts | 315° |
| 2026-05-06 04:26 | 53.83525 | -1.73403 | 38046 ft | 442 kts | 315° |
| 2026-05-06 04:27 | 53.88055 | -1.80444 | 38049 ft | 442 kts | 315° |
| 2026-05-06 04:27 | 53.92572 | -1.87423 | 38047 ft | 442 kts | 315° |
| 2026-05-06 04:28 | 53.97108 | -1.94446 | 38058 ft | 441 kts | 315° |
| 2026-05-06 04:28 | 54.01667 | -2.01437 | 38059 ft | 442 kts | 319° |
| 2026-05-06 04:29 | 54.06865 | -2.07108 | 38069 ft | 445 kts | 327° |
| 2026-05-06 04:29 | 54.12240 | -2.12358 | 38076 ft | 445 kts | 327° |
| 2026-05-06 04:30 | 54.17600 | -2.17644 | 38080 ft | 445 kts | 327° |
| 2026-05-06 04:30 | 54.22941 | -2.22999 | 38082 ft | 445 kts | 327° |
| 2026-05-06 04:31 | 54.28275 | -2.28390 | 38080 ft | 445 kts | 326° |
| 2026-05-06 04:31 | 54.30950 | -2.31103 | 37823 ft | 450 kts | 326° |
| 2026-05-06 04:31 | 54.33650 | -2.33847 | 37330 ft | 451 kts | 326° |
| 2026-05-06 04:31 | 54.36341 | -2.36581 | 36748 ft | 448 kts | 326° |
| 2026-05-06 04:32 | 54.39015 | -2.39302 | 36174 ft | 447 kts | 326° |
| 2026-05-06 04:32 | 54.41688 | -2.42026 | 35534 ft | 447 kts | 326° |
| 2026-05-06 04:32 | 54.44363 | -2.44758 | 34885 ft | 447 kts | 326° |
| 2026-05-06 04:32 | 54.47036 | -2.47490 | 34237 ft | 448 kts | 326° |
| 2026-05-06 04:33 | 54.49715 | -2.50235 | 33460 ft | 449 kts | 326° |
| 2026-05-06 04:33 | 54.52389 | -2.52977 | 32828 ft | 446 kts | 326° |
| 2026-05-06 04:33 | 54.55042 | -2.55700 | 32335 ft | 441 kts | 326° |
| 2026-05-06 04:33 | 54.57660 | -2.58392 | 31850 ft | 436 kts | 326° |
| 2026-05-06 04:34 | 54.60251 | -2.61060 | 31364 ft | 432 kts | 326° |
| 2026-05-06 04:34 | 54.62817 | -2.63708 | 30890 ft | 427 kts | 326° |
| 2026-05-06 04:34 | 54.65356 | -2.66332 | 30428 ft | 423 kts | 326° |
| 2026-05-06 04:34 | 54.67870 | -2.68935 | 29928 ft | 419 kts | 326° |
| 2026-05-06 04:35 | 54.70359 | -2.71515 | 29427 ft | 415 kts | 326° |
| 2026-05-06 04:35 | 54.72819 | -2.74068 | 28954 ft | 410 kts | 326° |
| 2026-05-06 04:35 | 54.75246 | -2.76591 | 28483 ft | 405 kts | 326° |
| 2026-05-06 04:35 | 54.77615 | -2.79057 | 28019 ft | 400 kts | 326° |
| 2026-05-06 04:36 | 54.79987 | -2.81532 | 27546 ft | 397 kts | 326° |
| 2026-05-06 04:36 | 54.82340 | -2.83987 | 27091 ft | 393 kts | 326° |
| 2026-05-06 04:36 | 54.84672 | -2.86425 | 26617 ft | 390 kts | 326° |
| 2026-05-06 04:36 | 54.86987 | -2.88847 | 26164 ft | 387 kts | 326° |
| 2026-05-06 04:37 | 54.89352 | -2.91063 | 25641 ft | 388 kts | 332° |
| 2026-05-06 04:37 | 54.91838 | -2.92922 | 25118 ft | 390 kts | 335° |
| 2026-05-06 04:37 | 54.94360 | -2.94655 | 24592 ft | 391 kts | 336° |
| 2026-05-06 04:37 | 54.96890 | -2.96383 | 24049 ft | 390 kts | 335° |
| 2026-05-06 04:38 | 54.99406 | -2.98138 | 23488 ft | 389 kts | 335° |
| 2026-05-06 04:38 | 55.01912 | -2.99923 | 22864 ft | 388 kts | 335° |
| 2026-05-06 04:38 | 55.04400 | -3.01721 | 22318 ft | 385 kts | 335° |
| 2026-05-06 04:38 | 55.06865 | -3.03519 | 21771 ft | 383 kts | 334° |
| 2026-05-06 04:39 | 55.09313 | -3.05310 | 21246 ft | 380 kts | 334° |
| 2026-05-06 04:39 | 55.11741 | -3.07089 | 20715 ft | 378 kts | 334° |
| 2026-05-06 04:39 | 55.14164 | -3.08864 | 20196 ft | 375 kts | 334° |
| 2026-05-06 04:39 | 55.16563 | -3.10624 | 19643 ft | 374 kts | 335° |
| 2026-05-06 04:40 | 55.18966 | -3.12386 | 19076 ft | 374 kts | 335° |
| 2026-05-06 04:40 | 55.21357 | -3.14141 | 18515 ft | 373 kts | 335° |
| 2026-05-06 04:40 | 55.23750 | -3.15899 | 17896 ft | 372 kts | 335° |
| 2026-05-06 04:40 | 55.26133 | -3.17653 | 17263 ft | 371 kts | 335° |
| 2026-05-06 04:41 | 55.28509 | -3.19382 | 16699 ft | 369 kts | 338° |
| 2026-05-06 04:41 | 55.31015 | -3.20289 | 16122 ft | 371 kts | 356° |
| 2026-05-06 04:41 | 55.33594 | -3.20063 | 15583 ft | 370 kts | 2° |
| 2026-05-06 04:41 | 55.36155 | -3.19640 | 14992 ft | 369 kts | 3° |
| 2026-05-06 04:42 | 55.38704 | -3.19179 | 14430 ft | 368 kts | 4° |
| 2026-05-06 04:42 | 55.41244 | -3.18725 | 13873 ft | 366 kts | 3° |
| 2026-05-06 04:42 | 55.43776 | -3.18292 | 13244 ft | 365 kts | 3° |
| 2026-05-06 04:42 | 55.46295 | -3.17878 | 12662 ft | 362 kts | 4° |
| 2026-05-06 04:43 | 55.48795 | -3.17476 | 12110 ft | 360 kts | 4° |
| 2026-05-06 04:43 | 55.51283 | -3.17083 | 11527 ft | 358 kts | 4° |
| 2026-05-06 04:43 | 55.53758 | -3.16693 | 10953 ft | 356 kts | 4° |
| 2026-05-06 04:43 | 55.56220 | -3.16305 | 10389 ft | 354 kts | 4° |
| 2026-05-06 04:44 | 55.58665 | -3.15920 | 9964 ft | 349 kts | 4° |
| 2026-05-06 04:44 | 55.61015 | -3.15548 | 9987 ft | 331 kts | 4° |
| 2026-05-06 04:44 | 55.63263 | -3.15193 | 9885 ft | 318 kts | 4° |
| 2026-05-06 04:44 | 55.65309 | -3.14869 | 9789 ft | 306 kts | 4° |
| 2026-05-06 04:45 | 55.67389 | -3.14539 | 9704 ft | 294 kts | 4° |
| 2026-05-06 04:45 | 55.69383 | -3.14659 | 9599 ft | 282 kts | 344° |
| 2026-05-06 04:45 | 55.71084 | -3.16170 | 9516 ft | 270 kts | 320° |
| 2026-05-06 04:45 | 55.72301 | -3.18609 | 9446 ft | 260 kts | 301° |
| 2026-05-06 04:46 | 55.73039 | -3.21476 | 9262 ft | 252 kts | 293° |
| 2026-05-06 04:46 | 55.73711 | -3.24337 | 8848 ft | 251 kts | 293° |
| 2026-05-06 04:46 | 55.74374 | -3.27152 | 8460 ft | 249 kts | 293° |
| 2026-05-06 04:46 | 55.75048 | -3.30018 | 8084 ft | 247 kts | 293° |
| 2026-05-06 04:47 | 55.75707 | -3.32826 | 7717 ft | 245 kts | 293° |
| 2026-05-06 04:47 | 55.76360 | -3.35610 | 7338 ft | 244 kts | 293° |
| 2026-05-06 04:47 | 55.77007 | -3.38377 | 6981 ft | 242 kts | 293° |
| 2026-05-06 04:47 | 55.77641 | -3.41089 | 6634 ft | 240 kts | 293° |
| 2026-05-06 04:48 | 55.78285 | -3.43848 | 6282 ft | 237 kts | 293° |
| 2026-05-06 04:48 | 55.78905 | -3.46511 | 6070 ft | 229 kts | 293° |
| 2026-05-06 04:48 | 55.79500 | -3.49062 | 5826 ft | 223 kts | 293° |
| 2026-05-06 04:48 | 55.80095 | -3.51617 | 5579 ft | 218 kts | 293° |
| 2026-05-06 04:49 | 55.80646 | -3.53993 | 5500 ft | 203 kts | 293° |
| 2026-05-06 04:49 | 55.81163 | -3.56222 | 5382 ft | 188 kts | 293° |
| 2026-05-06 04:49 | 55.81650 | -3.58328 | 5175 ft | 178 kts | 293° |
| 2026-05-06 04:49 | 55.82115 | -3.60335 | 4822 ft | 179 kts | 293° |
| 2026-05-06 04:50 | 55.82592 | -3.62393 | 4413 ft | 181 kts | 293° |
| 2026-05-06 04:50 | 55.83137 | -3.64382 | 4129 ft | 174 kts | 313° |
| 2026-05-06 04:50 | 55.84210 | -3.65227 | 3929 ft | 190 kts | 4° |
| 2026-05-06 04:50 | 55.85421 | -3.64269 | 3623 ft | 193 kts | 47° |
| 2026-05-06 04:51 | 55.86262 | -3.62461 | 3344 ft | 186 kts | 53° |
| 2026-05-06 04:51 | 55.87031 | -3.60682 | 3086 ft | 177 kts | 57° |
| 2026-05-06 04:51 | 55.87687 | -3.58907 | 2852 ft | 166 kts | 60° |
| 2026-05-06 04:51 | 55.88267 | -3.57214 | 2631 ft | 155 kts | 60° |
| 2026-05-06 04:52 | 55.88803 | -3.55623 | 2455 ft | 144 kts | 61° |
| 2026-05-06 04:52 | 55.89316 | -3.54095 | 2230 ft | 145 kts | 61° |
| 2026-05-06 04:52 | 55.89832 | -3.52563 | 2014 ft | 142 kts | 61° |
| 2026-05-06 04:52 | 55.90336 | -3.51065 | 1825 ft | 141 kts | 61° |
| 2026-05-06 04:53 | 55.90842 | -3.49562 | 1615 ft | 142 kts | 60° |
| 2026-05-06 04:53 | 55.91352 | -3.48048 | 1421 ft | 143 kts | 60° |
| 2026-05-06 04:53 | 55.91865 | -3.46526 | 1215 ft | 145 kts | 60° |
| 2026-05-06 04:53 | 55.92384 | -3.44951 | 1026 ft | 150 kts | 60° |
| 2026-05-06 04:54 | 55.92919 | -3.43333 | 807 ft | 153 kts | 59° |
| 2026-05-06 04:54 | 55.93483 | -3.41672 | 530 ft | 158 kts | 58° |
| 2026-05-06 04:54 | 55.94047 | -3.40057 | 297 ft | 150 kts | 58° |
| 2026-05-06 04:54 | 55.94572 | -3.38515 | 132 ft | 142 kts | 58° |
| 2026-05-06 04:55 | 55.95032 | -3.37152 | 111 ft | 102 kts | 58° |
| 2026-05-06 04:55 | 55.95244 | -3.36524 | 111 ft | 29 kts | 66° |
| 2026-05-06 04:55 | 55.95192 | -3.36342 | 112 ft | 18 kts | 147° |
| 2026-05-06 04:55 | 55.95083 | -3.36390 | 113 ft | 18 kts | 202° |
| 2026-05-06 04:56 | 55.94966 | -3.36386 | 112 ft | 14 kts | 148° |
| 2026-05-06 04:56 | 55.94942 | -3.36360 | 113 ft | 0 kts | 148° |